createdAt,value
2018-05-21T00:01:39.506Z,68.02
2018-05-21T00:04:07.092Z,68.32
2018-05-21T00:06:35.481Z,68.09
2018-05-21T00:09:03.317Z,68.71
2018-05-21T00:11:30.948Z,68.74
2018-05-21T00:13:58.537Z,68.86
2018-05-21T00:16:26.149Z,68.46
2018-05-21T00:18:53.796Z,68.53
2018-05-21T00:21:21.392Z,68.40
2018-05-21T00:23:49.177Z,68.58
2018-05-21T00:26:16.795Z,68.20
2018-05-21T00:28:44.547Z,68.16
2018-05-21T00:31:12.595Z,68.89
2018-05-21T00:33:40.694Z,68.78
2018-05-21T00:36:08.447Z,68.36
2018-05-21T00:38:36.320Z,68.20
2018-05-21T00:41:05.110Z,68.23
2018-05-21T00:43:32.856Z,68.36
2018-05-21T00:46:00.828Z,68.48
2018-05-21T00:48:28.693Z,68.17
2018-05-21T00:50:56.410Z,67.96
2018-05-21T00:53:24.261Z,68.26
2018-05-21T00:55:52.020Z,68.36
2018-05-21T00:58:19.763Z,68.70
2018-05-21T01:00:47.590Z,68.74
2018-05-21T01:03:15.373Z,69.14
2018-05-21T01:05:43.167Z,69.21
2018-05-21T01:08:11.168Z,68.74
2018-05-21T01:10:38.904Z,68.87
2018-05-21T01:13:06.660Z,68.80
2018-05-21T01:15:34.593Z,68.63
2018-05-21T01:18:02.362Z,69.06
2018-05-21T01:20:30.122Z,69.24
2018-05-21T01:22:57.936Z,69.13
2018-05-21T01:25:25.684Z,68.97
2018-05-21T01:27:53.549Z,68.60
2018-05-21T01:30:21.411Z,68.93
2018-05-21T01:32:49.224Z,68.84
2018-05-21T01:35:16.999Z,68.98
2018-05-21T01:37:44.836Z,69.19
2018-05-21T01:40:12.588Z,68.92
2018-05-21T01:42:40.350Z,68.85
2018-05-21T01:45:08.291Z,68.49
2018-05-21T01:47:36.229Z,68.50
2018-05-21T01:50:04.056Z,69.40
2018-05-21T01:52:31.877Z,69.13
2018-05-21T01:54:59.608Z,69.32
2018-05-21T01:57:27.361Z,69.02
2018-05-21T01:59:55.071Z,69.02
2018-05-21T02:02:22.700Z,69.61
2018-05-21T02:04:50.272Z,68.96
2018-05-21T02:07:17.997Z,69.15
2018-05-21T02:09:45.684Z,69.51
2018-05-21T02:12:13.270Z,69.76
2018-05-21T02:14:40.958Z,69.59
2018-05-21T02:17:08.533Z,69.70
2018-05-21T02:19:36.116Z,70.43
2018-05-21T02:22:03.839Z,70.56
2018-05-21T02:24:31.479Z,70.44
2018-05-21T02:26:59.126Z,70.65
2018-05-21T02:29:26.766Z,71.29
2018-05-21T02:31:54.352Z,71.19
2018-05-21T02:34:21.935Z,71.91
2018-05-21T02:36:49.695Z,72.00
2018-05-21T02:39:17.274Z,72.07
2018-05-21T02:41:44.918Z,72.04
2018-05-21T02:44:12.613Z,71.40
2018-05-21T02:46:40.179Z,71.50
2018-05-21T02:49:07.756Z,72.24
2018-05-21T02:51:35.436Z,71.87
2018-05-21T02:54:03.028Z,71.70
2018-05-21T02:56:30.605Z,71.84
2018-05-21T02:58:58.313Z,71.26
2018-05-21T03:01:25.900Z,72.31
2018-05-21T03:03:53.494Z,71.84
2018-05-21T03:06:21.212Z,72.05
2018-05-21T03:08:48.791Z,71.91
2018-05-21T03:11:16.468Z,72.41
2018-05-21T03:13:44.245Z,72.25
2018-05-21T03:16:11.885Z,72.52
2018-05-21T03:18:39.525Z,73.09
2018-05-21T03:21:07.143Z,73.19
2018-05-21T03:23:34.795Z,74.13
2018-05-21T03:26:02.429Z,73.80
2018-05-21T03:28:30.137Z,73.45
2018-05-21T03:30:57.716Z,73.30
2018-05-21T03:33:25.305Z,73.58
2018-05-21T03:35:52.932Z,73.10
2018-05-21T03:38:20.594Z,73.38
2018-05-21T03:40:48.180Z,73.71
2018-05-21T03:43:16.237Z,73.31
2018-05-21T03:45:43.857Z,73.40
2018-05-21T03:48:11.452Z,74.16
2018-05-21T03:50:39.285Z,73.66
2018-05-21T03:53:06.931Z,73.31
2018-05-21T03:55:34.516Z,73.70
2018-05-21T03:58:02.241Z,73.60
2018-05-21T04:00:56.178Z,73.32
2018-05-21T04:03:35.626Z,73.28
2018-05-21T04:06:03.217Z,72.68
2018-05-21T04:08:30.799Z,72.16
2018-05-21T04:10:58.521Z,71.76
2018-05-21T04:13:26.163Z,71.25
2018-05-21T04:15:54.251Z,70.53
2018-05-21T04:18:21.988Z,70.17
2018-05-21T04:20:50.099Z,70.01
2018-05-21T04:23:17.689Z,69.47
2018-05-21T04:25:45.322Z,68.55
2018-05-21T04:28:12.900Z,67.57
2018-05-21T04:30:40.494Z,66.74
2018-05-21T04:33:08.121Z,66.30
2018-05-21T04:35:35.696Z,64.91
2018-05-21T04:38:03.329Z,63.97
2018-05-21T04:40:30.939Z,63.70
2018-05-21T04:42:58.512Z,62.67
2018-05-21T04:45:26.089Z,60.88
2018-05-21T04:47:53.734Z,61.71
2018-05-21T04:50:21.381Z,64.30
2018-05-21T04:52:48.975Z,64.90
2018-05-21T04:55:16.668Z,64.25
2018-05-21T04:57:44.244Z,60.72
2018-05-21T05:00:11.849Z,60.84
2018-05-21T05:02:39.571Z,61.22
2018-05-21T05:05:07.348Z,60.32
2018-05-21T05:07:34.916Z,59.91
2018-05-21T05:10:03.571Z,58.98
2018-05-21T05:12:31.161Z,58.64
2018-05-21T05:14:58.769Z,60.26
2018-05-21T05:17:26.492Z,56.66
2018-05-21T05:19:54.136Z,55.99
2018-05-21T05:22:21.773Z,56.47
2018-05-21T05:24:49.576Z,55.33
2018-05-21T05:27:17.172Z,51.88
2018-05-21T05:29:44.813Z,54.41
2018-05-21T05:32:12.436Z,53.44
2018-05-21T05:34:40.066Z,50.03
2018-05-21T05:37:07.773Z,45.65
2018-05-21T05:39:35.403Z,48.96
2018-05-21T05:42:03.017Z,46.42
2018-05-21T05:44:30.624Z,48.47
2018-05-21T05:46:58.250Z,45.97
2018-05-21T05:49:25.847Z,47.91
2018-05-21T05:51:53.423Z,46.55
2018-05-21T05:54:21.035Z,45.71
2018-05-21T05:56:48.609Z,48.06
2018-05-21T05:59:17.123Z,46.62
2018-05-21T06:01:44.840Z,47.16
2018-05-21T06:04:12.474Z,50.76
2018-05-21T06:06:40.043Z,50.09
2018-05-21T06:09:07.767Z,46.10
2018-05-21T06:11:35.349Z,49.03
2018-05-21T06:14:02.984Z,44.89
2018-05-21T06:16:30.626Z,49.02
2018-05-21T06:18:58.216Z,47.16
2018-05-21T06:21:25.807Z,46.63
2018-05-21T06:23:53.441Z,43.70
2018-05-21T06:26:21.046Z,49.18
2018-05-21T06:28:48.677Z,44.44
2018-05-21T06:31:16.344Z,45.18
2018-05-21T06:33:44.570Z,44.34
2018-05-21T06:36:12.171Z,45.33
2018-05-21T06:38:39.919Z,41.90
2018-05-21T06:41:07.545Z,46.89
2018-05-21T06:43:35.199Z,44.29
2018-05-21T06:46:02.827Z,44.92
2018-05-21T06:53:54.123Z,41.78
2018-05-21T06:56:21.698Z,42.32
2018-05-21T06:58:49.279Z,43.62
2018-05-21T07:01:17.608Z,44.75
2018-05-21T07:03:45.214Z,43.23
2018-05-21T07:06:12.853Z,42.81
2018-05-21T07:08:40.500Z,41.93
2018-05-21T07:11:08.151Z,44.12
2018-05-21T07:13:35.731Z,43.67
2018-05-21T07:16:03.362Z,42.54
2018-05-21T07:18:31.108Z,42.04
2018-05-21T07:20:58.743Z,45.10
2018-05-21T07:23:26.500Z,42.29
2018-05-21T07:25:54.109Z,42.19
2018-05-21T07:28:21.696Z,43.06
2018-05-21T07:30:49.403Z,42.41
2018-05-21T07:33:16.991Z,42.84
2018-05-21T07:35:44.576Z,41.65
2018-05-21T07:38:12.280Z,41.57
2018-05-21T07:40:39.945Z,41.51
2018-05-21T07:43:07.589Z,42.00
2018-05-21T07:45:35.199Z,42.69
2018-05-21T07:48:02.783Z,43.96
2018-05-21T07:50:30.384Z,43.27
2018-05-21T07:52:58.123Z,39.80
2018-05-21T07:55:28.547Z,41.06
2018-05-21T07:57:56.176Z,39.91
2018-05-21T08:00:23.826Z,39.58
2018-05-21T08:02:51.411Z,41.58
2018-05-21T08:05:19.033Z,40.76
2018-05-21T08:07:46.641Z,39.37
2018-05-21T08:10:14.294Z,40.73
2018-05-21T08:12:41.892Z,41.66
2018-05-21T08:15:09.606Z,43.03
2018-05-21T08:17:37.187Z,40.74
2018-05-21T08:20:04.909Z,41.23
2018-05-21T08:22:32.623Z,42.05
2018-05-21T08:25:00.213Z,43.05
2018-05-21T08:27:27.795Z,45.06
2018-05-21T08:29:55.634Z,45.21
2018-05-21T08:32:23.199Z,43.56
2018-05-21T08:34:50.775Z,44.94
2018-05-21T08:37:18.410Z,44.93
2018-05-21T08:39:46.003Z,46.50
2018-05-21T08:42:13.607Z,46.95
2018-05-21T08:44:41.240Z,46.12
2018-05-21T08:47:08.819Z,46.68
2018-05-21T08:49:36.415Z,47.06
2018-05-21T08:52:04.138Z,47.55
2018-05-21T08:54:31.719Z,47.77
2018-05-21T08:56:59.363Z,47.93
2018-05-21T08:59:27.080Z,47.56
2018-05-21T09:01:54.660Z,51.27
2018-05-21T09:04:22.248Z,48.15
2018-05-21T09:06:49.954Z,48.56
2018-05-21T09:09:17.600Z,48.93
2018-05-21T09:11:45.676Z,48.43
2018-05-21T09:14:13.309Z,48.43
2018-05-21T09:16:40.968Z,48.13
2018-05-21T09:19:08.516Z,48.63
2018-05-21T09:21:36.209Z,47.62
2018-05-21T09:24:03.808Z,45.58
2018-05-21T09:26:31.403Z,46.36
2018-05-21T09:28:59.131Z,44.15
2018-05-21T09:31:26.839Z,45.81
2018-05-21T09:33:54.415Z,45.83
2018-05-21T09:36:22.096Z,45.64
2018-05-21T09:38:49.667Z,47.22
2018-05-21T09:41:17.321Z,47.25
2018-05-21T09:43:44.956Z,47.40
2018-05-21T09:46:12.621Z,43.52
2018-05-21T09:48:40.216Z,44.12
2018-05-21T09:51:07.861Z,44.43
2018-05-21T09:53:35.439Z,46.78
2018-05-21T09:56:03.651Z,44.82
2018-05-21T09:58:31.340Z,45.27
2018-05-21T10:00:58.964Z,43.33
2018-05-21T10:03:26.544Z,45.23
2018-05-21T10:05:54.172Z,46.04
2018-05-21T10:08:21.789Z,43.17
2018-05-21T10:10:49.367Z,44.56
2018-05-21T10:13:16.987Z,43.48
2018-05-21T10:15:44.572Z,45.14
2018-05-21T10:18:12.232Z,42.31
2018-05-21T10:20:39.912Z,41.77
2018-05-21T10:23:08.472Z,42.14
2018-05-21T10:25:36.088Z,43.28
2018-05-21T10:28:03.871Z,43.05
2018-05-21T10:30:31.520Z,41.89
2018-05-21T10:32:59.095Z,43.22
2018-05-21T10:35:26.748Z,40.18
2018-05-21T10:37:54.347Z,42.25
2018-05-21T10:40:21.925Z,40.45
2018-05-21T10:42:49.626Z,40.92
2018-05-21T10:45:17.216Z,41.47
2018-05-21T10:47:44.812Z,41.06
2018-05-21T10:50:12.565Z,41.10
2018-05-21T10:52:40.209Z,40.44
2018-05-21T10:55:07.912Z,41.01
2018-05-21T10:57:35.696Z,42.92
2018-05-21T11:00:03.331Z,43.52
2018-05-21T11:02:31.005Z,43.02
2018-05-21T11:04:58.702Z,43.83
2018-05-21T11:07:26.404Z,42.63
2018-05-21T11:09:54.023Z,42.96
2018-05-21T11:12:21.726Z,43.25
2018-05-21T11:14:49.312Z,42.81
2018-05-21T11:17:16.916Z,43.20
2018-05-21T11:19:44.563Z,44.25
2018-05-21T11:22:12.146Z,43.02
2018-05-21T11:24:39.760Z,43.74
2018-05-21T11:27:07.537Z,43.15
2018-05-21T11:29:35.107Z,42.01
2018-05-21T11:32:02.862Z,43.71
2018-05-21T11:34:30.468Z,43.86
2018-05-21T11:36:58.051Z,42.00
2018-05-21T11:39:25.629Z,42.29
2018-05-21T11:41:53.249Z,41.48
2018-05-21T11:44:20.876Z,42.29
2018-05-21T11:46:48.474Z,41.39
2018-05-21T11:49:16.167Z,42.36
2018-05-21T11:51:43.744Z,42.44
2018-05-21T11:54:11.335Z,43.60
2018-05-21T11:56:38.964Z,42.70
2018-05-21T11:59:06.553Z,42.82
2018-05-21T12:01:34.216Z,42.11
2018-05-21T12:04:01.848Z,43.41
2018-05-21T12:06:29.442Z,39.41
2018-05-21T12:08:57.077Z,41.63
2018-05-21T12:11:24.751Z,41.46
2018-05-21T12:13:52.340Z,39.60
2018-05-21T12:16:19.905Z,39.98
2018-05-21T12:18:47.852Z,39.29
2018-05-21T12:21:15.421Z,39.78
2018-05-21T12:23:43.008Z,39.17
2018-05-21T12:26:10.784Z,39.82
2018-05-21T12:28:38.438Z,39.93
2018-05-21T12:31:05.960Z,40.51
2018-05-21T12:33:33.646Z,41.37
2018-05-21T12:36:01.229Z,43.39
2018-05-21T12:38:28.874Z,44.05
2018-05-21T12:40:56.519Z,45.50
2018-05-21T12:43:24.104Z,46.39
2018-05-21T12:45:51.704Z,47.55
2018-05-21T12:48:19.422Z,46.21
2018-05-21T12:50:47.027Z,46.81
2018-05-21T12:53:14.649Z,45.70
2018-05-21T12:55:42.278Z,46.47
2018-05-21T12:58:09.865Z,45.36
2018-05-21T13:00:37.442Z,45.06
2018-05-21T13:03:05.273Z,45.96
2018-05-21T13:05:32.837Z,46.98
2018-05-21T13:08:00.491Z,46.83
2018-05-21T13:10:28.268Z,46.10
2018-05-21T13:12:56.066Z,45.95
2018-05-21T13:15:23.705Z,46.37
2018-05-21T13:17:51.367Z,45.75
2018-05-21T13:20:18.948Z,46.78
2018-05-21T13:22:46.699Z,44.11
2018-05-21T13:25:14.481Z,44.30
2018-05-21T13:27:42.796Z,42.70
2018-05-21T13:30:10.381Z,43.32
2018-05-21T13:32:38.029Z,43.06
2018-05-21T13:35:05.680Z,41.73
2018-05-21T13:37:33.301Z,41.48
2018-05-21T13:40:01.001Z,43.03
2018-05-21T13:42:28.579Z,41.96
2018-05-21T13:44:56.177Z,43.00
2018-05-21T13:47:23.844Z,43.16
2018-05-21T13:49:51.432Z,44.41
2018-05-21T13:52:19.146Z,44.74
2018-05-21T13:54:46.755Z,44.05
2018-05-21T13:57:14.339Z,44.81
2018-05-21T13:59:41.985Z,45.60
2018-05-21T14:02:09.786Z,45.05
2018-05-21T14:04:37.433Z,43.82
2018-05-21T14:07:05.009Z,44.66
2018-05-21T14:09:32.629Z,43.68
2018-05-21T14:12:00.273Z,43.23
2018-05-21T14:14:27.853Z,44.17
2018-05-21T14:16:55.595Z,43.18
2018-05-21T14:19:23.244Z,43.64
2018-05-21T14:21:50.817Z,43.50
2018-05-21T14:24:19.304Z,44.13
2018-05-21T14:26:47.037Z,43.88
2018-05-21T14:29:14.631Z,43.79
2018-05-21T14:31:42.360Z,43.69
2018-05-21T14:34:09.937Z,43.37
2018-05-21T14:36:37.574Z,43.26
2018-05-21T14:39:06.164Z,43.90
2018-05-21T14:41:33.752Z,43.67
2018-05-21T14:44:01.319Z,44.15
2018-05-21T14:46:29.066Z,44.35
2018-05-21T14:48:56.681Z,43.41
2018-05-21T14:51:24.259Z,43.99
2018-05-21T14:53:51.993Z,44.16
2018-05-21T14:56:19.642Z,44.46
2018-05-21T14:58:47.280Z,43.68
2018-05-21T15:01:14.923Z,44.47
2018-05-21T15:03:42.551Z,44.39
2018-05-21T15:06:10.200Z,45.70
2018-05-21T15:08:37.868Z,44.34
2018-05-21T15:11:05.492Z,45.06
2018-05-21T15:13:33.060Z,43.85
2018-05-21T15:16:00.767Z,43.95
2018-05-21T15:18:28.395Z,43.47
2018-05-21T15:20:56.062Z,43.87
2018-05-21T15:23:23.740Z,43.30
2018-05-21T15:25:51.337Z,44.22
2018-05-21T15:28:18.904Z,44.56
2018-05-21T15:30:46.643Z,44.62
2018-05-21T15:33:14.281Z,46.07
2018-05-21T15:35:41.864Z,46.43
2018-05-21T15:38:09.534Z,46.76
2018-05-21T15:40:37.181Z,46.81
2018-05-21T15:43:04.897Z,46.69
2018-05-21T15:45:32.642Z,46.66
2018-05-21T15:48:00.212Z,46.29
2018-05-21T15:50:28.804Z,46.63
2018-05-21T15:52:56.675Z,47.27
2018-05-21T15:55:24.252Z,47.46
2018-05-21T15:57:51.846Z,47.10
2018-05-21T16:00:19.467Z,46.83
2018-05-21T16:02:47.048Z,47.24
2018-05-21T16:05:14.696Z,47.60
2018-05-21T16:07:42.484Z,47.98
2018-05-21T16:10:10.065Z,48.46
2018-05-21T16:12:37.721Z,49.56
2018-05-21T16:15:05.478Z,49.77
2018-05-21T16:17:33.056Z,49.39
2018-05-21T16:20:00.642Z,49.70
2018-05-21T16:22:28.425Z,50.49
2018-05-21T16:24:56.087Z,51.24
2018-05-21T16:27:23.659Z,51.06
2018-05-21T16:29:51.286Z,51.19
2018-05-21T16:32:18.913Z,51.90
2018-05-21T16:34:46.495Z,51.92
2018-05-21T16:37:14.129Z,52.28
2018-05-21T16:39:42.939Z,52.42
2018-05-21T16:42:10.507Z,52.46
2018-05-21T16:44:38.252Z,52.91
2018-05-21T16:47:05.841Z,52.75
2018-05-21T16:49:33.419Z,53.51
2018-05-21T16:52:01.070Z,53.52
2018-05-21T16:54:28.716Z,53.95
2018-05-21T16:56:56.323Z,53.90
2018-05-21T16:59:24.058Z,53.99
2018-05-21T17:01:51.652Z,54.73
2018-05-21T17:04:19.298Z,54.47
2018-05-21T17:06:47.040Z,54.54
2018-05-21T17:09:14.632Z,54.94
2018-05-21T17:11:42.208Z,55.36
2018-05-21T17:14:09.932Z,55.91
2018-05-21T17:16:37.524Z,56.02
2018-05-21T17:19:05.540Z,56.30
2018-05-21T17:21:33.779Z,56.48
2018-05-21T17:24:01.490Z,57.00
2018-05-21T17:26:29.051Z,57.33
2018-05-21T17:28:56.688Z,57.33
2018-05-21T17:31:24.263Z,57.47
2018-05-21T17:33:51.867Z,58.14
2018-05-21T17:36:19.502Z,57.84
2018-05-21T17:38:47.096Z,57.89
2018-05-21T17:41:14.685Z,57.79
2018-05-21T17:43:42.313Z,58.05
2018-05-21T17:46:09.936Z,58.09
2018-05-21T17:48:37.585Z,58.30
2018-05-21T17:51:05.233Z,58.51
2018-05-21T17:53:32.890Z,58.56
2018-05-21T17:56:00.528Z,58.81
2018-05-21T17:58:28.231Z,58.69
2018-05-21T18:00:55.868Z,58.81
2018-05-21T18:03:23.446Z,58.47
2018-05-21T18:05:51.116Z,58.49
2018-05-21T18:08:18.688Z,58.77
2018-05-21T18:10:46.291Z,58.80
2018-05-21T18:13:13.916Z,58.86
2018-05-21T18:15:41.512Z,59.28
2018-05-21T18:18:10.519Z,59.67
2018-05-21T18:20:38.252Z,60.29
2018-05-21T18:23:05.825Z,59.57
2018-05-21T18:25:33.409Z,60.35
2018-05-21T18:28:01.057Z,60.13
2018-05-21T18:30:28.890Z,60.97
2018-05-21T18:32:56.537Z,60.57
2018-05-21T18:35:24.216Z,61.10
2018-05-21T18:37:51.792Z,61.38
2018-05-21T18:40:19.444Z,62.13
2018-05-21T18:42:47.173Z,62.38
2018-05-21T18:45:14.756Z,63.00
2018-05-21T18:47:42.381Z,63.42
2018-05-21T18:50:10.016Z,63.52
2018-05-21T18:52:37.604Z,64.58
2018-05-21T18:55:05.211Z,64.67
2018-05-21T18:57:32.828Z,65.34
2018-05-21T19:00:00.424Z,65.62
2018-05-21T19:02:28.072Z,65.82
2018-05-21T19:04:55.713Z,66.21
2018-05-21T19:07:23.307Z,66.09
2018-05-21T19:09:50.883Z,66.55
2018-05-21T19:12:18.506Z,66.46
2018-05-21T19:14:46.085Z,67.12
2018-05-21T19:17:13.672Z,67.43
2018-05-21T19:19:41.360Z,67.33
2018-05-21T19:22:08.988Z,67.44
2018-05-21T19:24:36.578Z,67.85
2018-05-21T19:27:04.301Z,67.99
2018-05-21T19:29:31.895Z,68.34
2018-05-21T19:31:59.516Z,68.09
2018-05-21T19:34:27.300Z,68.34
2018-05-21T19:36:54.985Z,68.45
2018-05-21T19:39:22.621Z,68.12
2018-05-21T19:41:50.259Z,68.26
2018-05-21T19:44:17.897Z,67.98
2018-05-21T19:46:45.459Z,68.31
2018-05-21T19:49:13.195Z,68.23
2018-05-21T19:51:40.800Z,68.61
2018-05-21T19:54:08.370Z,68.54
2018-05-21T19:56:36.024Z,68.41
2018-05-21T19:59:03.707Z,68.88
2018-05-21T20:01:31.292Z,69.35
2018-05-21T20:03:58.929Z,69.12
2018-05-21T20:06:26.653Z,69.67
2018-05-21T20:08:54.301Z,69.77
2018-05-21T20:11:22.957Z,69.90
2018-05-21T20:13:50.531Z,69.94
2018-05-21T20:16:18.181Z,69.88
2018-05-21T20:18:45.877Z,69.84
2018-05-21T20:21:13.528Z,69.76
2018-05-21T20:23:41.091Z,69.95
2018-05-21T20:26:08.745Z,70.31
2018-05-21T20:28:36.331Z,70.00
2018-05-21T20:31:03.940Z,70.19
2018-05-21T20:33:31.659Z,70.24
2018-05-21T20:35:59.497Z,69.96
2018-05-21T20:38:27.172Z,70.32
2018-05-21T20:40:54.943Z,70.69
2018-05-21T20:43:23.214Z,70.61
2018-05-21T20:45:50.826Z,69.98
2018-05-21T20:48:18.547Z,69.97
2018-05-21T20:50:46.140Z,69.81
2018-05-21T20:53:13.724Z,69.36
2018-05-21T20:55:41.314Z,69.35
2018-05-21T20:58:08.949Z,69.12
2018-05-21T21:00:36.534Z,69.05
2018-05-21T21:03:04.171Z,68.80
2018-05-21T21:05:31.741Z,68.43
2018-05-21T21:07:59.433Z,68.31
2018-05-21T21:10:26.999Z,68.54
2018-05-21T21:12:54.623Z,68.97
2018-05-21T21:15:22.272Z,69.36
2018-05-21T21:17:49.934Z,69.42
2018-05-21T21:20:17.572Z,69.32
2018-05-21T21:22:45.230Z,69.15
2018-05-21T21:25:12.826Z,68.87
2018-05-21T21:27:40.412Z,68.32
2018-05-21T21:30:08.060Z,68.10
2018-05-21T21:32:35.630Z,68.41
2018-05-21T21:35:03.302Z,67.73
2018-05-21T21:37:31.649Z,67.88
2018-05-21T21:39:59.289Z,67.60
2018-05-21T21:42:26.856Z,67.78
2018-05-21T21:44:54.633Z,67.66
2018-05-21T21:47:22.167Z,68.52
2018-05-21T21:49:49.752Z,67.19
2018-05-21T21:52:17.515Z,67.26
2018-05-21T21:54:45.117Z,67.48
2018-05-21T21:57:12.690Z,67.16
2018-05-21T21:59:40.319Z,67.34
2018-05-21T22:02:07.894Z,67.08
2018-05-21T22:04:35.475Z,67.56
2018-05-21T22:07:03.209Z,67.25
2018-05-21T22:09:30.869Z,67.58
2018-05-21T22:11:58.439Z,67.12
2018-05-21T22:14:26.161Z,66.72
2018-05-21T22:16:53.744Z,66.80
2018-05-21T22:19:21.321Z,66.64
2018-05-21T22:21:49.047Z,67.15
2018-05-21T22:24:16.694Z,66.82
2018-05-21T22:26:44.299Z,66.70
2018-05-21T22:29:11.912Z,66.58
2018-05-21T22:31:39.556Z,66.83
2018-05-21T22:34:07.893Z,66.74
2018-05-21T22:36:35.520Z,66.18
2018-05-21T22:39:03.129Z,65.96
2018-05-21T22:41:30.700Z,65.92
2018-05-21T22:43:58.377Z,66.04
2018-05-21T22:46:25.988Z,66.01
2018-05-21T22:48:53.641Z,65.01
2018-05-21T22:51:21.361Z,65.36
2018-05-21T22:53:48.971Z,65.41
2018-05-21T22:56:16.666Z,64.98
2018-05-21T22:58:44.381Z,64.95
2018-05-21T23:01:12.044Z,64.67
2018-05-21T23:03:39.689Z,64.94
2018-05-21T23:06:07.501Z,64.95
2018-05-21T23:08:35.137Z,64.91
2018-05-21T23:11:02.793Z,64.70
2018-05-21T23:13:30.437Z,64.78
2018-05-21T23:15:58.681Z,64.65
2018-05-21T23:18:26.267Z,64.24
2018-05-21T23:20:53.899Z,64.71
2018-05-21T23:23:21.487Z,64.47
2018-05-21T23:25:49.132Z,64.80
2018-05-21T23:28:16.933Z,64.52
2018-05-21T23:30:44.515Z,64.38
2018-05-21T23:33:12.112Z,64.63
2018-05-21T23:35:39.885Z,64.24
2018-05-21T23:38:07.458Z,64.39
2018-05-21T23:40:35.096Z,63.95
2018-05-21T23:43:02.743Z,64.31
2018-05-21T23:45:30.504Z,64.31
2018-05-21T23:47:58.133Z,64.03
2018-05-21T23:50:25.758Z,63.92
2018-05-21T23:52:53.377Z,64.29
2018-05-21T23:55:20.993Z,64.05
2018-05-21T23:57:48.614Z,63.85
